APL Coral — WDF6832 — position and weather

sailwx.info

Track history (hours):
 
Tides and Currents Weather Stations Pressure Air Temp Water Temp Dewpoint Dewpoint Depression Visibility Wind Speed Wind Dir Waves Ship Positions

APL Coral

Owner: APL Maritime Ltd., Bethesda, MD. More information available from US FCC via Universal Licensing System and Coast Guard Vessel Documentation Center.

Last reported at 2015-Mar-20 18:00 UTC. Time now 2015-Mar-27 05:15 UTC.
Position N 33°30' E 025°42'.

Length 275 m; draft 11.8 m.

Type: Cargo ship. MMSI: 367478280.

Wind from 290 at 10 knots

Barometer 1016.2 mb
Air temperature 16.0 ° C
Visibility: greater than 10.8 NM
Dewpoint 10.3 ° C
Water temperature 17.0 ° C

Date/timePositionNaut miles runAvg speedWind from/ knotsBaromVisibWave heightAir tempDewpointWater temp
2015-Mar-20 18:00N 33°30' E 025°42'56819.8 290 / 101016.210.8 16.010.317.0
2015-Mar-19 13:20N 36°24' E 014°43'1519.5
2015-Mar-19 12:34N 36°30' E 014°26'2019.7
2015-Mar-19 11:34N 36°40' E 014°05'2019.9
2015-Mar-19 10:34N 36°50' E 013°43'2019.5
2015-Mar-19 09:33N 36°60' E 013°22'4819.6
2015-Mar-19 07:05N 37°24' E 012°30'1119.7
2015-Mar-19 06:33N 37°30' E 012°19'1220.8
2015-Mar-19 06:00N 37°36' E 012°06'818.1 090 / 51017.010.8 0.514.010.215.0
2015-Mar-19 05:33N 37°42' E 011°59'2219.5
2015-Mar-19 04:25N 37°54' E 011°36'11519.6
2015-Mar-18 22:32N 38°55' E 009°31'1818.6
2015-Mar-18 21:33N 39°05' E 009°11'9 8.7
2015-Mar-18 20:33N 39°12' E 009°05'1 0.9
2015-Mar-18 19:33N 39°13' E 009°04'0 0.0
2015-Mar-18 18:33N 39°13' E 009°04'0 0.0
2015-Mar-18 17:33N 39°13' E 009°04'0 0.0
2015-Mar-18 16:33N 39°13' E 009°04'0 0.0
2015-Mar-18 15:33N 39°13' E 009°04'0 0.0
2015-Mar-18 14:33N 39°13' E 009°04'0 0.0
2015-Mar-18 13:33N 39°13' E 009°04'0 0.0
2015-Mar-18 12:33N 39°13' E 009°04'0 0.0
2015-Mar-18 11:33N 39°13' E 009°04'0 0.0
2015-Mar-18 10:33N 39°13' E 009°04'0 0.0
2015-Mar-18 09:33N 39°13' E 009°04'0 0.0
2015-Mar-18 08:33N 39°13' E 009°04'0 0.0
2015-Mar-18 07:33N 39°13' E 009°04'0 0.4
2015-Mar-18 06:33N 39°13' E 009°05'6 5.8
2015-Mar-18 05:33N 39°07' E 009°07'6 5.8
2015-Mar-18 04:33N 39°01' E 009°09'7 6.9
2015-Mar-18 03:33N 38°55' E 009°06'1514.5
2015-Mar-18 02:32N 38°43' E 008°54'1615.6
2015-Mar-18 01:30N 38°41' E 008°34'1515.5
2015-Mar-18 00:32N 38°39' E 008°15'66515.5
2015-Mar-16 05:33N 35°60' W 005°17'2317.9
2015-Mar-16 04:17N 35°54' W 005°44'1316.1
2015-Mar-16 03:30N 35°53' W 005°60'5216.1
2015-Mar-16 00:14N 35°55' W 007°04'1115.7
2015-Mar-15 23:33N 35°55' W 007°18'1615.7
2015-Mar-15 22:33N 35°56' W 007°37'1815.6
2015-Mar-15 21:25N 35°56' W 007°59'1315.4
2015-Mar-15 20:33N 35°56' W 008°15'1515.5
2015-Mar-15 19:33N 35°56' W 008°34'1615.6
2015-Mar-15 18:33N 35°56' W 008°53'1615.5
2015-Mar-15 17:32N 35°56' W 009°13'1515.2
2015-Mar-15 16:33N 35°57' W 009°31'6415.5
2015-Mar-15 12:25N 35°58' W 010°51'1615.7
2015-Mar-15 11:24N 35°59' W 011°10'4615.6
2015-Mar-15 08:29N 35°59' W 012°07'1616.7
2015-Mar-15 07:33N 35°60' W 012°26'1616.0
2015-Mar-15 06:33N 35°60' W 012°46'2115.6
2015-Mar-15 05:11N 36°01' W 013°12'2715.8
2015-Mar-15 03:29N 36°01' W 013°45'1515.8
2015-Mar-15 02:33N 36°01' W 014°04'1616.0
2015-Mar-15 01:33N 36°02' W 014°23'1715.7
2015-Mar-15 00:30N 36°02' W 014°44'2215.9
2015-Mar-14 23:07N 36°02' W 015°11'2515.7
2015-Mar-14 21:32N 36°04' W 015°42'1615.8
2015-Mar-14 20:33N 36°04' W 016°01'1615.9
2015-Mar-14 19:33N 36°04' W 016°21'1413.4
2015-Mar-14 18:33N 36°04' W 016°37'1413.2
2015-Mar-14 17:27N 36°04' W 016°55'3913.4
2015-Mar-14 14:32N 36°06' W 017°43'1313.7
2015-Mar-14 13:33N 36°06' W 018°00'1912.5
2015-Mar-14 12:00N 36°06' W 018°24'9215.4 180 / 71027.210.8 15.0 9.217.0
2015-Mar-14 06:00N 36°06' W 020°18'6717.1 180 / 51025.010.8 0.516.012.418.0
2015-Mar-14 02:04N 36°09' W 021°41'7716.5
2015-Mar-13 21:26N 36°10' W 023°16'1917.0
2015-Mar-13 20:19N 36°12' W 023°39'1316.8
2015-Mar-13 19:33N 36°12' W 023°55'1717.0
2015-Mar-13 18:34N 36°13' W 024°16'1717.2
2015-Mar-13 17:33N 36°13' W 024°38'1717.1
2015-Mar-13 16:33N 36°13' W 024°59'1717.0
2015-Mar-13 15:33N 36°13' W 025°20'1717.3
2015-Mar-13 14:34N 36°14' W 025°41'1716.9
2015-Mar-13 13:33N 36°14' W 026°02'1717.4
2015-Mar-13 12:33N 36°15' W 026°24'1017.8
2015-Mar-13 12:00N 36°12' W 026°36'6617.3 140 / 101025.210.8 1.018.515.118.0
2015-Mar-13 08:12N 36°16' W 027°57'13816.8
2015-Mar-13 00:00N 36°18' W 030°48'19816.5 220 / 101022.510.8 18.014.620.0
2015-Mar-12 12:00N 36°18' W 034°54'10216.9 280 / 101025.210.8 2.019.011.8
2015-Mar-12 06:00N 36°24' W 037°00'10116.9 210 / 101025.010.8 2.016.0 8.121.0
2015-Mar-12 00:00N 36°24' W 039°06'10216.9 280 / 101026.510.8
2015-Mar-11 18:00N 36°30' W 041°12'19816.5 290 / 181026.010.8 2.514.0 8.019.0
2015-Mar-11 06:00N 36°30' W 045°18'10116.9 280 / 221022.010.8 2.015.0 9.220.0
2015-Mar-11 00:00N 36°30' W 047°24'   270 / 121022.110.8 16.012.420.0
Track history (hours):
 
Tides and Currents Weather Stations Pressure Air Temp Water Temp Dewpoint Dewpoint Depression Visibility Wind Speed Wind Dir Waves Ship Positions

APL Coral

Owner: APL Maritime Ltd., Bethesda, MD. More information available from US FCC via Universal Licensing System and Coast Guard Vessel Documentation Center.

Last reported at 2015-Mar-20 18:00 UTC. Time now 2015-Mar-27 05:15 UTC.
Position N 33°30' E 025°42'.

Length 275 m; draft 11.8 m.

Type: Cargo ship. MMSI: 367478280.

Wind from 290 at 10 knots

Barometer 1016.2 mb
Air temperature 16.0 ° C
Visibility: greater than 10.8 NM
Dewpoint 10.3 ° C
Water temperature 17.0 ° C

Date/timePositionNaut miles runAvg speedWind from/ knotsBaromVisibWave heightAir tempDewpointWater temp
2015-Mar-20 18:00N 33°30' E 025°42'56819.8 290 / 101016.210.8 16.010.317.0
2015-Mar-19 13:20N 36°24' E 014°43'1519.5
2015-Mar-19 12:34N 36°30' E 014°26'2019.7
2015-Mar-19 11:34N 36°40' E 014°05'2019.9
2015-Mar-19 10:34N 36°50' E 013°43'2019.5
2015-Mar-19 09:33N 36°60' E 013°22'4819.6
2015-Mar-19 07:05N 37°24' E 012°30'1119.7
2015-Mar-19 06:33N 37°30' E 012°19'1220.8
2015-Mar-19 06:00N 37°36' E 012°06'818.1 090 / 51017.010.8 0.514.010.215.0
2015-Mar-19 05:33N 37°42' E 011°59'2219.5
2015-Mar-19 04:25N 37°54' E 011°36'11519.6
2015-Mar-18 22:32N 38°55' E 009°31'1818.6
2015-Mar-18 21:33N 39°05' E 009°11'9 8.7
2015-Mar-18 20:33N 39°12' E 009°05'1 0.9
2015-Mar-18 19:33N 39°13' E 009°04'0 0.0
2015-Mar-18 18:33N 39°13' E 009°04'0 0.0
2015-Mar-18 17:33N 39°13' E 009°04'0 0.0
2015-Mar-18 16:33N 39°13' E 009°04'0 0.0
2015-Mar-18 15:33N 39°13' E 009°04'0 0.0
2015-Mar-18 14:33N 39°13' E 009°04'0 0.0
2015-Mar-18 13:33N 39°13' E 009°04'0 0.0
2015-Mar-18 12:33N 39°13' E 009°04'0 0.0
2015-Mar-18 11:33N 39°13' E 009°04'0 0.0
2015-Mar-18 10:33N 39°13' E 009°04'0 0.0
2015-Mar-18 09:33N 39°13' E 009°04'0 0.0
2015-Mar-18 08:33N 39°13' E 009°04'0 0.0
2015-Mar-18 07:33N 39°13' E 009°04'0 0.4
2015-Mar-18 06:33N 39°13' E 009°05'6 5.8
2015-Mar-18 05:33N 39°07' E 009°07'6 5.8
2015-Mar-18 04:33N 39°01' E 009°09'7 6.9
2015-Mar-18 03:33N 38°55' E 009°06'1514.5
2015-Mar-18 02:32N 38°43' E 008°54'1615.6
2015-Mar-18 01:30N 38°41' E 008°34'1515.5
2015-Mar-18 00:32N 38°39' E 008°15'66515.5
2015-Mar-16 05:33N 35°60' W 005°17'2317.9
2015-Mar-16 04:17N 35°54' W 005°44'1316.1
2015-Mar-16 03:30N 35°53' W 005°60'5216.1
2015-Mar-16 00:14N 35°55' W 007°04'1115.7
2015-Mar-15 23:33N 35°55' W 007°18'1615.7
2015-Mar-15 22:33N 35°56' W 007°37'1815.6
2015-Mar-15 21:25N 35°56' W 007°59'1315.4
2015-Mar-15 20:33N 35°56' W 008°15'1515.5
2015-Mar-15 19:33N 35°56' W 008°34'1615.6
2015-Mar-15 18:33N 35°56' W 008°53'1615.5
2015-Mar-15 17:32N 35°56' W 009°13'1515.2
2015-Mar-15 16:33N 35°57' W 009°31'6415.5
2015-Mar-15 12:25N 35°58' W 010°51'1615.7
2015-Mar-15 11:24N 35°59' W 011°10'4615.6
2015-Mar-15 08:29N 35°59' W 012°07'1616.7
2015-Mar-15 07:33N 35°60' W 012°26'1616.0
2015-Mar-15 06:33N 35°60' W 012°46'2115.6
2015-Mar-15 05:11N 36°01' W 013°12'2715.8
2015-Mar-15 03:29N 36°01' W 013°45'1515.8
2015-Mar-15 02:33N 36°01' W 014°04'1616.0
2015-Mar-15 01:33N 36°02' W 014°23'1715.7
2015-Mar-15 00:30N 36°02' W 014°44'2215.9
2015-Mar-14 23:07N 36°02' W 015°11'2515.7
2015-Mar-14 21:32N 36°04' W 015°42'1615.8
2015-Mar-14 20:33N 36°04' W 016°01'1615.9
2015-Mar-14 19:33N 36°04' W 016°21'1413.4
2015-Mar-14 18:33N 36°04' W 016°37'1413.2
2015-Mar-14 17:27N 36°04' W 016°55'3913.4
2015-Mar-14 14:32N 36°06' W 017°43'1313.7
2015-Mar-14 13:33N 36°06' W 018°00'1912.5
2015-Mar-14 12:00N 36°06' W 018°24'9215.4 180 / 71027.210.8 15.0 9.217.0
2015-Mar-14 06:00N 36°06' W 020°18'6717.1 180 / 51025.010.8 0.516.012.418.0
2015-Mar-14 02:04N 36°09' W 021°41'7716.5
2015-Mar-13 21:26N 36°10' W 023°16'1917.0
2015-Mar-13 20:19N 36°12' W 023°39'1316.8
2015-Mar-13 19:33N 36°12' W 023°55'1717.0
2015-Mar-13 18:34N 36°13' W 024°16'1717.2
2015-Mar-13 17:33N 36°13' W 024°38'1717.1
2015-Mar-13 16:33N 36°13' W 024°59'1717.0
2015-Mar-13 15:33N 36°13' W 025°20'1717.3
2015-Mar-13 14:34N 36°14' W 025°41'1716.9
2015-Mar-13 13:33N 36°14' W 026°02'1717.4
2015-Mar-13 12:33N 36°15' W 026°24'1017.8
2015-Mar-13 12:00N 36°12' W 026°36'6617.3 140 / 101025.210.8 1.018.515.118.0
2015-Mar-13 08:12N 36°16' W 027°57'13816.8
2015-Mar-13 00:00N 36°18' W 030°48'19816.5 220 / 101022.510.8 18.014.620.0
2015-Mar-12 12:00N 36°18' W 034°54'10216.9 280 / 101025.210.8 2.019.011.8
2015-Mar-12 06:00N 36°24' W 037°00'10116.9 210 / 101025.010.8 2.016.0 8.121.0
2015-Mar-12 00:00N 36°24' W 039°06'10216.9 280 / 101026.510.8
2015-Mar-11 18:00N 36°30' W 041°12'19816.5 290 / 181026.010.8 2.514.0 8.019.0
2015-Mar-11 06:00N 36°30' W 045°18'10116.9 280 / 221022.010.8 2.015.0 9.220.0
2015-Mar-11 00:00N 36°30' W 047°24'   270 / 121022.110.8 16.012.420.0

Dump ship's entire track history